createdAt,value
2024-02-02T00:01:58.493Z,100835.23
2024-02-02T00:05:27.056Z,100833.38
2024-02-02T00:08:55.734Z,100844.92
2024-02-02T00:12:24.678Z,100846.46
2024-02-02T00:15:53.707Z,100849.36
2024-02-02T00:19:22.303Z,100855.33
2024-02-02T00:22:34.140Z,100856.46
2024-02-02T00:26:02.726Z,100859.69
2024-02-02T00:29:31.929Z,100863.74
2024-02-02T00:33:00.649Z,100862.10
2024-02-02T00:36:29.521Z,100864.60
2024-02-02T00:39:58.318Z,100863.96
2024-02-02T00:43:26.908Z,100867.84
2024-02-02T00:46:55.504Z,100869.27
2024-02-02T00:50:24.098Z,100872.99
2024-02-02T00:53:52.725Z,100880.37
2024-02-02T00:57:21.678Z,100880.70
2024-02-02T01:00:50.560Z,100885.84
2024-02-02T01:04:20.029Z,100887.94
2024-02-02T01:07:48.918Z,100891.63
2024-02-02T01:11:17.746Z,100897.16
2024-02-02T01:14:46.257Z,100896.09
2024-02-02T01:18:15.007Z,100898.48
2024-02-02T01:21:44.482Z,100902.22
2024-02-02T01:25:13.374Z,100903.48
2024-02-02T01:28:41.949Z,100908.08
2024-02-02T01:32:10.545Z,100909.33
2024-02-02T01:35:39.128Z,100906.34
2024-02-02T01:39:07.982Z,100906.20
2024-02-02T01:42:36.667Z,100907.36
2024-02-02T01:46:05.101Z,100912.26
2024-02-02T01:49:33.837Z,100911.86
2024-02-02T01:53:04.832Z,100912.89
2024-02-02T01:56:33.418Z,100911.29
2024-02-02T02:00:02.077Z,100914.36
2024-02-02T02:03:30.967Z,100920.14
2024-02-02T02:07:00.293Z,100925.67
2024-02-02T02:10:29.145Z,100929.25
2024-02-02T02:13:57.897Z,100925.66
2024-02-02T02:17:26.491Z,100929.48
2024-02-02T02:20:55.132Z,100935.33
2024-02-02T02:24:23.753Z,100937.13
2024-02-02T02:27:52.549Z,100934.54
2024-02-02T02:31:21.166Z,100935.23
2024-02-02T02:34:49.827Z,100932.31
2024-02-02T02:38:18.653Z,100935.01
2024-02-02T02:41:47.219Z,100940.84
2024-02-02T02:45:13.259Z,100935.98
2024-02-02T02:48:42.339Z,100940.09
2024-02-02T02:52:11.150Z,100936.50
2024-02-02T02:55:39.678Z,100936.20
2024-02-02T02:59:07.407Z,100936.52
2024-02-02T03:02:35.986Z,100936.72
2024-02-02T03:06:04.689Z,100940.27
2024-02-02T03:09:33.502Z,100946.77
2024-02-02T03:13:02.065Z,100945.77
2024-02-02T03:16:31.290Z,100941.42
2024-02-02T03:20:01.310Z,100935.38
2024-02-02T03:23:30.134Z,100937.38
2024-02-02T03:26:58.732Z,100943.13
2024-02-02T03:30:27.544Z,100944.45
2024-02-02T03:33:56.360Z,100953.27
2024-02-02T03:37:25.087Z,100960.52
2024-02-02T03:40:53.994Z,100968.13
2024-02-02T03:44:22.629Z,100971.95
2024-02-02T03:47:51.518Z,100977.66
2024-02-02T03:51:20.441Z,100977.11
2024-02-02T03:54:51.427Z,100981.13
2024-02-02T03:58:20.014Z,100990.11
2024-02-02T04:01:48.645Z,100990.41
2024-02-02T04:05:17.445Z,100992.27
2024-02-02T04:08:46.401Z,100992.28
2024-02-02T04:12:15.011Z,100995.09
2024-02-02T04:15:44.701Z,100995.80
2024-02-02T04:19:15.024Z,100997.80
2024-02-02T04:22:43.838Z,100998.17
2024-02-02T04:26:12.702Z,100993.14
2024-02-02T04:29:41.615Z,100999.30
2024-02-02T04:33:10.355Z,101007.27
2024-02-02T04:36:32.588Z,101010.37
2024-02-02T04:40:01.310Z,101009.70
2024-02-02T04:43:29.131Z,101010.27
2024-02-02T04:47:00.222Z,101010.65
2024-02-02T04:50:28.877Z,101020.93
2024-02-02T04:53:58.675Z,101027.95
2024-02-02T04:57:27.275Z,101024.58
2024-02-02T05:00:56.271Z,101030.91
2024-02-02T05:04:25.062Z,101029.44
2024-02-02T05:07:53.722Z,101030.61
2024-02-02T05:11:22.530Z,101029.30
2024-02-02T05:14:51.182Z,101029.31
2024-02-02T05:18:20.013Z,101036.41
2024-02-02T05:21:47.610Z,101030.20
2024-02-02T05:25:16.462Z,101031.39
2024-02-02T05:28:45.591Z,101034.23
2024-02-02T05:32:14.188Z,101033.41
2024-02-02T05:35:42.778Z,101035.75
2024-02-02T05:39:11.449Z,101035.27
2024-02-02T05:42:40.330Z,101033.55
2024-02-02T05:46:09.647Z,101034.52
2024-02-02T05:49:38.445Z,101034.32
2024-02-02T05:53:07.573Z,101036.96
2024-02-02T05:56:36.230Z,101040.30
2024-02-02T06:00:05.142Z,101044.22
2024-02-02T06:03:34.109Z,101047.67
2024-02-02T06:07:03.045Z,101053.48
2024-02-02T06:10:32.369Z,101058.09
2024-02-02T06:14:00.959Z,101066.21
2024-02-02T06:17:30.074Z,101068.50
2024-02-02T06:20:58.784Z,101078.00
2024-02-02T06:24:27.646Z,101082.80
2024-02-02T06:27:56.215Z,101086.14
2024-02-02T06:31:24.940Z,101088.55
2024-02-02T06:34:53.567Z,101092.51
2024-02-02T06:38:22.114Z,101094.23
2024-02-02T06:41:50.632Z,101098.79
2024-02-02T06:45:19.792Z,101089.75
2024-02-02T06:48:59.013Z,101092.15
2024-02-02T06:52:27.832Z,101084.80
2024-02-02T06:55:56.507Z,101091.91
2024-02-02T06:59:31.163Z,101089.22
2024-02-02T07:02:59.721Z,101083.75
2024-02-02T07:06:29.614Z,101089.26
2024-02-02T07:10:01.127Z,101088.60
2024-02-02T07:13:31.520Z,101091.09
2024-02-02T07:17:09.109Z,101092.34
2024-02-02T07:20:40.554Z,101102.52
2024-02-02T07:23:48.544Z,101108.24
2024-02-02T07:27:28.798Z,101109.54
2024-02-02T07:31:06.650Z,101104.17
2024-02-02T07:34:41.302Z,101103.42
2024-02-02T07:38:21.816Z,101106.02
2024-02-02T07:41:32.072Z,101108.05
2024-02-02T07:45:00.724Z,101113.33
2024-02-02T07:48:29.722Z,101110.23
2024-02-02T07:51:58.454Z,101105.75
2024-02-02T07:55:26.965Z,101107.85
2024-02-02T07:58:55.638Z,101109.30
2024-02-02T08:02:24.179Z,101113.66
2024-02-02T08:05:52.941Z,101110.48
2024-02-02T08:09:21.759Z,101106.27
2024-02-02T08:12:50.322Z,101115.94
2024-02-02T08:16:18.910Z,101108.59
2024-02-02T08:19:47.521Z,101112.25
2024-02-02T08:23:16.392Z,101111.19
2024-02-02T08:26:45.342Z,101110.92
2024-02-02T08:30:14.211Z,101111.20
2024-02-02T08:33:42.953Z,101108.20
2024-02-02T08:37:11.530Z,101109.70
2024-02-02T08:40:40.450Z,101114.89
2024-02-02T08:44:09.427Z,101118.58
2024-02-02T08:47:38.044Z,101118.92
2024-02-02T08:51:07.385Z,101116.88
2024-02-02T08:54:36.459Z,101114.66
2024-02-02T08:58:08.452Z,101106.59
2024-02-02T09:01:43.011Z,101108.23
2024-02-02T09:05:19.657Z,101111.44
2024-02-02T09:08:51.952Z,101114.08
2024-02-02T09:12:20.651Z,101117.48
2024-02-02T09:15:49.552Z,101119.47
2024-02-02T09:19:18.462Z,101118.55
2024-02-02T09:22:47.217Z,101118.80
2024-02-02T09:26:12.244Z,101125.31
2024-02-02T09:29:41.214Z,101129.44
2024-02-02T09:33:10.072Z,101130.10
2024-02-02T09:36:39.034Z,101129.20
2024-02-02T09:40:13.646Z,101131.73
2024-02-02T09:43:48.555Z,101133.10
2024-02-02T09:47:23.073Z,101133.81
2024-02-02T09:51:10.091Z,101137.32
2024-02-02T09:54:41.988Z,101138.86
2024-02-02T09:58:14.470Z,101139.34
2024-02-02T10:01:55.782Z,101132.41
2024-02-02T10:05:45.803Z,101135.44
2024-02-02T10:09:29.785Z,101142.09
2024-02-02T10:13:16.648Z,101136.02
2024-02-02T10:17:03.913Z,101129.65
2024-02-02T10:20:53.031Z,101119.14
2024-02-02T10:24:42.985Z,101115.15
2024-02-02T10:28:29.544Z,101118.86
2024-02-02T10:31:56.052Z,101119.79
2024-02-02T10:35:39.471Z,101120.39
2024-02-02T10:39:10.478Z,101118.70
2024-02-02T10:42:48.354Z,101119.31
2024-02-02T10:46:32.251Z,101116.14
2024-02-02T10:50:24.726Z,101113.02
2024-02-02T10:53:54.828Z,101115.30
2024-02-02T10:57:23.726Z,101106.18
2024-02-02T11:00:55.306Z,101095.23
2024-02-02T11:04:30.459Z,101090.47
2024-02-02T11:07:57.824Z,101089.06
2024-02-02T11:11:32.208Z,101088.98
2024-02-02T11:15:12.631Z,101083.81
2024-02-02T11:18:21.222Z,101080.84
2024-02-02T11:21:54.270Z,101079.23
2024-02-02T11:25:34.730Z,101079.04
2024-02-02T11:29:06.242Z,101077.27
2024-02-02T11:32:56.449Z,101077.13
2024-02-02T11:36:32.253Z,101071.15
2024-02-02T11:40:05.609Z,101077.92
2024-02-02T11:43:30.032Z,101072.29
2024-02-02T11:46:58.531Z,101073.95
2024-02-02T11:50:27.077Z,101069.76
2024-02-02T11:54:04.939Z,101062.51
2024-02-02T11:57:42.685Z,101066.40
2024-02-02T12:01:27.027Z,101054.70
2024-02-02T12:05:01.796Z,101050.91
2024-02-02T12:08:42.617Z,101047.33
2024-02-02T12:12:13.342Z,101044.73
2024-02-02T12:15:45.152Z,101041.89
2024-02-02T12:19:05.995Z,101036.98
2024-02-02T12:22:35.257Z,101032.36
2024-02-02T12:25:59.988Z,101024.45
2024-02-02T12:29:28.597Z,101022.77
2024-02-02T12:32:57.578Z,101021.36
2024-02-02T12:36:26.225Z,101017.91
2024-02-02T12:39:55.174Z,101013.94
2024-02-02T12:43:23.993Z,101010.30
2024-02-02T12:46:52.630Z,101006.84
2024-02-02T12:50:14.442Z,101002.04
2024-02-02T12:53:43.305Z,101001.76
2024-02-02T12:57:11.999Z,101000.97
2024-02-02T13:00:40.897Z,100995.62
2024-02-02T13:04:08.703Z,100998.98
2024-02-02T13:07:38.070Z,100994.80
2024-02-02T13:11:15.905Z,100993.25
2024-02-02T13:14:44.821Z,100985.98
2024-02-02T13:18:13.729Z,100983.16
2024-02-02T13:21:45.553Z,100980.74
2024-02-02T13:25:26.254Z,100974.92
2024-02-02T13:29:01.115Z,100966.23
2024-02-02T13:32:29.730Z,100959.94
2024-02-02T13:36:01.468Z,100962.64
2024-02-02T13:39:29.465Z,100955.02
2024-02-02T13:42:58.266Z,100952.95
2024-02-02T13:46:26.777Z,100951.16
2024-02-02T13:50:04.529Z,100951.34
2024-02-02T13:53:33.232Z,100943.35
2024-02-02T13:57:05.195Z,100942.10
2024-02-02T14:00:36.732Z,100936.50
2024-02-02T14:04:11.543Z,100927.02
2024-02-02T14:07:40.314Z,100923.72
2024-02-02T14:11:12.432Z,100918.88
2024-02-02T14:14:41.317Z,100910.89
2024-02-02T14:18:10.015Z,100909.31
2024-02-02T14:21:38.975Z,100899.83
2024-02-02T14:24:54.420Z,100888.36
2024-02-02T14:28:23.135Z,100885.08
2024-02-02T14:31:51.779Z,100877.95
2024-02-02T14:35:20.420Z,100871.84
2024-02-02T14:38:49.234Z,100864.10
2024-02-02T14:42:17.844Z,100860.34
2024-02-02T14:45:36.869Z,100855.55
2024-02-02T14:49:09.177Z,100852.29
2024-02-02T14:52:37.124Z,100847.15
2024-02-02T14:56:05.991Z,100848.88
2024-02-02T14:59:24.563Z,100849.11
2024-02-02T15:02:28.541Z,100842.81
2024-02-02T15:05:57.403Z,100838.66
2024-02-02T15:09:26.030Z,100831.14
2024-02-02T15:12:54.650Z,100830.72
2024-02-02T15:16:23.268Z,100825.83
2024-02-02T15:19:52.055Z,100820.27
2024-02-02T15:23:20.948Z,100817.84
2024-02-02T15:26:39.370Z,100816.52
2024-02-02T15:30:08.073Z,100815.47
2024-02-02T15:33:37.167Z,100814.77
2024-02-02T15:37:08.823Z,100810.64
2024-02-02T15:40:37.398Z,100809.79
2024-02-02T15:44:06.317Z,100804.52
2024-02-02T15:47:35.199Z,100794.91
2024-02-02T15:50:55.744Z,100788.80
2024-02-02T15:54:24.441Z,100784.58
2024-02-02T15:57:53.477Z,100785.53
2024-02-02T16:01:22.850Z,100785.63
2024-02-02T16:04:51.676Z,100783.27
2024-02-02T16:08:20.267Z,100776.84
2024-02-02T16:11:51.148Z,100767.21
2024-02-02T16:15:21.789Z,100759.11
2024-02-02T16:18:50.575Z,100748.59
2024-02-02T16:22:19.629Z,100741.48
2024-02-02T16:25:50.873Z,100727.86
2024-02-02T16:29:19.424Z,100723.14
2024-02-02T16:32:48.113Z,100717.56
2024-02-02T16:36:16.742Z,100711.77
2024-02-02T16:39:46.541Z,100705.33
2024-02-02T16:43:15.611Z,100709.81
2024-02-02T16:46:37.081Z,100707.27
2024-02-02T16:50:05.976Z,100696.69
2024-02-02T16:53:34.713Z,100688.35
2024-02-02T16:57:03.428Z,100672.41
2024-02-02T17:00:25.090Z,100666.61
2024-02-02T17:03:53.800Z,100655.15
2024-02-02T17:07:23.644Z,100641.89
2024-02-02T17:10:52.823Z,100633.55
2024-02-02T17:14:21.633Z,100625.27
2024-02-02T17:17:50.347Z,100609.49
2024-02-02T17:21:19.152Z,100595.88
2024-02-02T17:24:48.066Z,100591.08
2024-02-02T17:28:16.947Z,100591.27
2024-02-02T17:31:45.640Z,100596.48
2024-02-02T17:35:05.280Z,100593.20
2024-02-02T17:38:37.187Z,100590.28
2024-02-02T17:42:05.929Z,100588.85
2024-02-02T17:45:28.090Z,100592.20
2024-02-02T17:48:56.718Z,100577.95
2024-02-02T17:52:25.601Z,100569.63
2024-02-02T17:55:44.844Z,100564.92
2024-02-02T17:59:13.501Z,100555.62
2024-02-02T18:02:42.121Z,100552.97
2024-02-02T18:06:11.010Z,100544.12
2024-02-02T18:09:39.706Z,100539.92
2024-02-02T18:13:14.488Z,100532.66
2024-02-02T18:16:43.147Z,100523.52
2024-02-02T18:20:04.705Z,100518.54
2024-02-02T18:23:12.948Z,100515.48
2024-02-02T18:26:34.193Z,100507.81
2024-02-02T18:30:02.849Z,100501.38
2024-02-02T18:33:31.949Z,100490.66
2024-02-02T18:37:02.152Z,100477.45
2024-02-02T18:40:30.746Z,100476.22
2024-02-02T18:43:59.312Z,100472.10
2024-02-02T18:47:28.118Z,100467.09
2024-02-02T18:50:56.791Z,100461.83
2024-02-02T18:54:25.415Z,100455.96
2024-02-02T18:57:53.978Z,100444.70
2024-02-02T19:01:22.701Z,100435.40
2024-02-02T19:04:51.614Z,100429.11
2024-02-02T19:08:20.219Z,100419.95
2024-02-02T19:11:41.631Z,100413.88
2024-02-02T19:15:10.527Z,100410.34
2024-02-02T19:18:39.169Z,100405.83
2024-02-02T19:22:07.690Z,100398.57
2024-02-02T19:25:36.535Z,100390.48
2024-02-02T19:29:05.370Z,100385.27
2024-02-02T19:32:34.122Z,100379.05
2024-02-02T19:35:53.766Z,100370.69
2024-02-02T19:39:22.295Z,100367.67
2024-02-02T19:42:51.138Z,100359.71
2024-02-02T19:46:20.026Z,100354.08
2024-02-02T19:49:48.619Z,100346.67
2024-02-02T19:53:17.501Z,100338.58
2024-02-02T19:56:46.123Z,100325.16
2024-02-02T20:00:15.270Z,100321.14
2024-02-02T20:03:44.241Z,100317.30
2024-02-02T20:07:13.138Z,100308.52
2024-02-02T20:10:44.634Z,100299.92
2024-02-02T20:14:13.132Z,100291.46
2024-02-02T20:17:41.935Z,100283.70
2024-02-02T20:21:12.013Z,100274.75
2024-02-02T20:24:40.645Z,100265.09
2024-02-02T20:28:07.658Z,100258.47
2024-02-02T20:31:36.186Z,100254.67
2024-02-02T20:35:04.920Z,100253.14
2024-02-02T20:38:33.728Z,100245.20
2024-02-02T20:42:05.390Z,100249.37
2024-02-02T20:45:34.283Z,100243.61
2024-02-02T20:49:02.927Z,100233.32
2024-02-02T20:52:31.791Z,100220.05
2024-02-02T20:56:00.718Z,100209.25
2024-02-02T20:59:29.518Z,100194.23
2024-02-02T21:02:58.095Z,100180.64
2024-02-02T21:06:26.732Z,100165.05
2024-02-02T21:09:54.622Z,100171.44
2024-02-02T21:13:23.130Z,100171.61
2024-02-02T21:16:51.913Z,100171.42
2024-02-02T21:20:20.933Z,100171.45
2024-02-02T21:23:49.649Z,100163.71
2024-02-02T21:27:18.284Z,100158.65
2024-02-02T21:30:47.280Z,100141.27
2024-02-02T21:34:16.296Z,100136.13
2024-02-02T21:37:45.153Z,100132.13
2024-02-02T21:41:14.198Z,100130.23
2024-02-02T21:44:43.158Z,100128.94
2024-02-02T21:47:54.965Z,100125.25
2024-02-02T21:51:23.885Z,100124.21
2024-02-02T21:54:53.054Z,100122.06
2024-02-02T21:58:14.611Z,100110.89
2024-02-02T22:01:43.174Z,100105.41
2024-02-02T22:05:13.535Z,100103.10
2024-02-02T22:08:42.220Z,100095.38
2024-02-02T22:12:10.816Z,100085.98
2024-02-02T22:15:29.238Z,100083.84
2024-02-02T22:19:00.544Z,100079.56
2024-02-02T22:22:30.678Z,100069.08
2024-02-02T22:25:59.326Z,100062.25
2024-02-02T22:29:27.984Z,100059.09
2024-02-02T22:32:56.616Z,100061.84
2024-02-02T22:36:25.559Z,100059.19
2024-02-02T22:39:57.806Z,100059.10
2024-02-02T22:43:26.334Z,100052.38
2024-02-02T22:46:54.940Z,100038.92
2024-02-02T22:50:23.463Z,100027.85
2024-02-02T22:53:52.103Z,100033.98
2024-02-02T22:57:21.000Z,100034.39
2024-02-02T23:00:49.951Z,100027.69
2024-02-02T23:04:19.014Z,100027.25
2024-02-02T23:07:47.720Z,100020.39
2024-02-02T23:11:17.212Z,100011.89
2024-02-02T23:14:45.778Z,100003.36
2024-02-02T23:18:14.552Z,100002.55
2024-02-02T23:21:43.299Z,99991.50
2024-02-02T23:25:11.865Z,99985.25
2024-02-02T23:28:40.441Z,99979.12
2024-02-02T23:32:09.246Z,99961.65
2024-02-02T23:35:37.771Z,99945.90
2024-02-02T23:39:06.898Z,99934.98
2024-02-02T23:42:35.734Z,99931.49
2024-02-02T23:46:05.080Z,99926.84
2024-02-02T23:49:33.754Z,99924.03
2024-02-02T23:53:02.556Z,99924.80
2024-02-02T23:56:33.438Z,99920.12
